Daretown, New Jersey
Current Conditions -  °F | °C
As of 9:54 PM on Friday 21 Nov 2014 (Local Time) from KMIV Reporting Station
Clear Clear  
Wind Chill: 18°   Ceiling: Unl
Heat Index: 18°   Visibility: 10mi
Dew Point: 13°   Wind: 3mph
Humidity: 81%   Direction: 250°WSW
Pressure: 30.54"   Gusts: NA
Location:  39.5646°N, 75.1874°W
Report Text: KMIV 220254Z AUTO 25003KT 10SM CLR M08/M11 A3054 RMK AO2 SLP343 T10781106 53008
Loading
Personal Weather Stations






























Interactive Weather Map New forecast layout! Learn more

10-Day Weather Forecast

Advertisements
Track Severe Weather on mobile